map of PLQ home
PLQ - Airport
Location
City:  Palanga, Lithuania
Near (Alt.):Klaipéda
Name:Palanga International Airport
ICAO:EYPA
IATA:PLQ

Details
Type:Airport (Aerodrome, Airfield)
Use:Public/Civil, International (customs port of entry)
Latitude:55°58'24"N (55.973333)
Longitude:21°05'38"E (21.093889)
Elevation:33 ft (10 m)
Variation:6.81°E (WMM2015v2 magnetic declination)
0.18° annual change
Runways:1
Longest:7480 × 148 ft (2280 × 45 m), paved

Time
Time Zone:UTC+2 (DST+3)
Local Time:

Weather
METAR:EYPA 041420Z 30003KT 240V040 9999 OVC021 00/M03 Q1025 R01/920295
TAF:EYPA 032317Z 0400/0424 36006KT 3000 SN BR OVC015
TEMPO 0400/0404 0800 +SN SCT005 BKN010
BECMG 0404/0406 33016KT 5000 B4R BKN020
BECMG 0415/0416 21008KT

Related Locations
Nearby:
Farthest:CHT: 11291 mi / 18171 km
Waitangi [Tuuta], CIT, NZ

Find:

   beyond  
but within

Other Information
Maps:
NOTAMs:
Links:
Sources:

  
  • flag of Lithuania
  

Airport Diagram

Airport diagram for PLQ

Airport diagram PDF

Sectional Chart

Flight Planning
at skyvector.com

Satellite Image

Google Maps Satellite view

 

Copyright © 2004-2019 Karl L. Swartz. All rights reserved.
The Great Circle Mapper name and logo are trademarks of the Great Circle Mapper.
All other trademarks mentioned herein belong to their respective owners.
Please see credits for attibutions and further copyright information.

  Follow gcmap on Facebook Follow gcmap on Twitter GCmap on LinkedIn

hCard Microformat

Geo Microformat